createdAt,value
2022-10-31T00:07:57.441Z,101630.00
2022-10-31T00:18:20.296Z,101638.00
2022-10-31T00:28:45.340Z,101650.00
2022-10-31T00:39:10.590Z,101645.00
2022-10-31T00:49:31.765Z,101653.00
2022-10-31T00:59:54.670Z,101669.00
2022-10-31T01:10:19.285Z,101666.00
2022-10-31T01:20:42.241Z,101669.00
2022-10-31T01:31:05.257Z,101663.00
2022-10-31T01:41:31.485Z,101670.00
2022-10-31T01:51:59.041Z,101667.00
2022-10-31T02:02:22.245Z,101670.00
2022-10-31T02:12:44.885Z,101680.00
2022-10-31T02:23:47.830Z,101679.00
2022-10-31T02:34:20.032Z,101671.00
2022-10-31T02:44:49.841Z,101673.00
2022-10-31T02:55:34.365Z,101691.00
2022-10-31T03:06:02.518Z,101696.00
2022-10-31T03:16:34.249Z,101715.00
2022-10-31T03:26:59.762Z,101722.00
2022-10-31T03:37:25.387Z,101714.00
2022-10-31T03:47:48.290Z,101723.00
2022-10-31T04:08:47.073Z,101732.00
2022-10-31T04:19:13.688Z,101753.00
2022-10-31T04:29:35.396Z,101749.00
2022-10-31T04:39:58.182Z,101751.00
2022-10-31T04:50:38.322Z,101757.00
2022-10-31T05:01:01.710Z,101760.00
2022-10-31T05:11:23.568Z,101767.00
2022-10-31T05:21:49.497Z,101780.00
2022-10-31T05:32:11.389Z,101786.00
2022-10-31T05:43:00.812Z,101786.00
2022-10-31T05:53:22.651Z,101788.00
2022-10-31T06:03:45.988Z,101787.00
2022-10-31T06:14:11.320Z,101791.00
2022-10-31T06:24:47.585Z,101798.00
2022-10-31T06:35:18.303Z,101816.00
2022-10-31T06:45:41.467Z,101834.00
2022-10-31T06:56:22.003Z,101838.00
2022-10-31T07:06:51.856Z,101843.00
2022-10-31T07:17:16.689Z,101838.00
2022-10-31T07:27:43.599Z,101851.00
2022-10-31T07:38:12.070Z,101859.00
2022-10-31T07:48:35.311Z,101862.00
2022-10-31T07:59:15.732Z,101876.00
2022-10-31T08:09:39.083Z,101878.00
2022-10-31T08:20:12.582Z,101886.00
2022-10-31T08:30:42.410Z,101895.00
2022-10-31T08:41:26.740Z,101901.00
2022-10-31T08:51:50.730Z,101896.00
2022-10-31T09:02:14.873Z,101896.00
2022-10-31T09:12:37.954Z,101890.00
2022-10-31T09:23:19.862Z,101919.00
2022-10-31T09:33:43.140Z,101915.00
2022-10-31T09:44:34.194Z,101915.00
2022-10-31T09:55:01.562Z,101926.00
2022-10-31T10:05:28.574Z,101924.00
2022-10-31T10:16:11.143Z,101933.00
2022-10-31T10:26:38.117Z,101897.00
2022-10-31T10:37:04.966Z,101905.00
2022-10-31T10:47:41.430Z,101910.00
2022-10-31T10:58:05.728Z,101896.00
2022-10-31T11:08:28.092Z,101911.00
2022-10-31T11:18:51.363Z,101881.00
2022-10-31T11:29:16.546Z,101890.00
2022-10-31T11:39:43.426Z,101882.00
2022-10-31T11:50:13.007Z,101881.00
2022-10-31T12:00:39.637Z,101893.00
2022-10-31T12:11:13.878Z,101876.00
2022-10-31T12:21:54.465Z,101882.00
2022-10-31T12:32:30.129Z,101857.00
2022-10-31T12:43:05.722Z,101854.00
2022-10-31T12:53:40.301Z,101850.00
2022-10-31T13:04:06.719Z,101845.00
2022-10-31T13:14:34.657Z,101841.00
2022-10-31T13:25:04.292Z,101830.00
2022-10-31T13:35:31.459Z,101821.00
2022-10-31T13:46:25.190Z,101822.00
2022-10-31T13:57:33.883Z,101819.00
2022-10-31T14:08:25.786Z,101816.00
2022-10-31T14:18:58.922Z,101804.00
2022-10-31T14:29:27.903Z,101797.00
2022-10-31T14:40:15.283Z,101788.00
2022-10-31T14:50:46.390Z,101782.00
2022-10-31T15:01:09.243Z,101782.00
2022-10-31T15:11:39.283Z,101765.00
2022-10-31T15:22:00.769Z,101783.00
2022-10-31T15:32:25.832Z,101773.00
2022-10-31T15:42:52.655Z,101758.00
2022-10-31T15:53:20.427Z,101760.00
2022-10-31T16:03:42.939Z,101766.00
2022-10-31T16:14:08.468Z,101766.00
2022-10-31T16:24:33.781Z,101764.00
2022-10-31T16:35:26.726Z,101770.00
2022-10-31T16:45:49.850Z,101760.00
2022-10-31T16:56:20.614Z,101753.00
2022-10-31T17:06:44.298Z,101742.00
2022-10-31T17:17:09.506Z,101752.00
2022-10-31T17:27:30.931Z,101737.00
2022-10-31T17:37:53.893Z,101734.00
2022-10-31T17:48:16.587Z,101730.00
2022-10-31T17:58:41.227Z,101717.00
2022-10-31T18:09:06.907Z,101726.00
2022-10-31T18:19:29.691Z,101712.00
2022-10-31T18:29:53.716Z,101710.00
2022-10-31T18:40:17.031Z,101705.00
2022-10-31T18:50:41.849Z,101688.00
2022-10-31T19:02:17.288Z,101692.00
2022-10-31T19:12:42.768Z,101675.00
2022-10-31T19:23:04.804Z,101682.00
2022-10-31T19:33:34.917Z,101672.00
2022-10-31T19:44:00.259Z,101655.00
2022-10-31T19:54:23.545Z,101645.00
2022-10-31T20:04:45.462Z,101631.00
2022-10-31T20:15:09.206Z,101618.00
2022-10-31T20:25:32.359Z,101624.00
2022-10-31T20:35:55.067Z,101604.00
2022-10-31T20:46:21.224Z,101599.00
2022-10-31T20:56:43.797Z,101592.00
2022-10-31T21:07:05.590Z,101596.00
2022-10-31T21:17:29.690Z,101593.00
2022-10-31T21:27:53.169Z,101587.00
2022-10-31T21:38:15.876Z,101567.00
2022-10-31T21:48:39.066Z,101552.00
2022-10-31T21:59:01.924Z,101538.00
2022-10-31T22:09:23.762Z,101518.00
2022-10-31T22:19:46.888Z,101542.00
2022-10-31T22:30:09.821Z,101532.00
2022-10-31T22:40:34.292Z,101528.00
2022-10-31T22:50:55.897Z,101509.00
2022-10-31T23:01:20.629Z,101482.00
2022-10-31T23:11:42.803Z,101485.00
2022-10-31T23:22:05.610Z,101464.00
2022-10-31T23:32:30.221Z,101447.00
2022-10-31T23:42:53.346Z,101437.00
2022-10-31T23:53:14.872Z,101418.00
